sensor_id;sensor_type;location;lat;lon;timestamp;temperature;humidity
27647;DHT22;42229;51.230;6.240;2023-04-08T00:00:43;10.90;99.90
27647;DHT22;42229;51.230;6.240;2023-04-08T00:03:10;10.80;99.90
27647;DHT22;42229;51.230;6.240;2023-04-08T00:05:36;10.80;99.90
27647;DHT22;42229;51.230;6.240;2023-04-08T00:08:02;10.90;99.90
27647;DHT22;42229;51.230;6.240;2023-04-08T00:10:28;10.90;99.90
27647;DHT22;42229;51.230;6.240;2023-04-08T00:12:55;10.90;99.90
27647;DHT22;42229;51.230;6.240;2023-04-08T00:15:21;10.90;99.90
27647;DHT22;42229;51.230;6.240;2023-04-08T00:17:47;10.90;99.90
27647;DHT22;42229;51.230;6.240;2023-04-08T00:20:13;10.90;99.90
27647;DHT22;42229;51.230;6.240;2023-04-08T00:22:40;10.80;99.90
27647;DHT22;42229;51.230;6.240;2023-04-08T00:25:06;10.80;99.90
27647;DHT22;42229;51.230;6.240;2023-04-08T00:27:34;10.80;99.90
27647;DHT22;42229;51.230;6.240;2023-04-08T00:30:00;10.80;99.90
27647;DHT22;42229;51.230;6.240;2023-04-08T00:32:27;10.70;99.90
27647;DHT22;42229;51.230;6.240;2023-04-08T00:34:54;10.70;99.90
27647;DHT22;42229;51.230;6.240;2023-04-08T00:37:20;10.70;99.90
27647;DHT22;42229;51.230;6.240;2023-04-08T00:39:47;10.60;99.90
27647;DHT22;42229;51.230;6.240;2023-04-08T00:42:15;10.60;99.90
27647;DHT22;42229;51.230;6.240;2023-04-08T00:44:42;10.60;99.90
27647;DHT22;42229;51.230;6.240;2023-04-08T00:47:11;10.60;99.90
27647;DHT22;42229;51.230;6.240;2023-04-08T00:49:37;10.60;99.90
27647;DHT22;42229;51.230;6.240;2023-04-08T00:52:04;10.50;99.90
27647;DHT22;42229;51.230;6.240;2023-04-08T00:54:30;10.50;99.90
27647;DHT22;42229;51.230;6.240;2023-04-08T00:56:56;10.50;99.90
27647;DHT22;42229;51.230;6.240;2023-04-08T00:59:26;10.40;99.90
27647;DHT22;42229;51.230;6.240;2023-04-08T01:07:24;10.30;99.90
27647;DHT22;42229;51.230;6.240;2023-04-08T01:09:54;10.30;99.90
27647;DHT22;42229;51.230;6.240;2023-04-08T01:12:26;10.30;99.90
27647;DHT22;42229;51.230;6.240;2023-04-08T01:14:58;10.30;99.90
27647;DHT22;42229;51.230;6.240;2023-04-08T01:17:26;10.20;99.90
27647;DHT22;42229;51.230;6.240;2023-04-08T01:19:52;10.20;99.90
27647;DHT22;42229;51.230;6.240;2023-04-08T01:25:18;10.10;99.90
27647;DHT22;42229;51.230;6.240;2023-04-08T01:27:46;10.10;99.90
27647;DHT22;42229;51.230;6.240;2023-04-08T01:30:13;10.10;99.90
27647;DHT22;42229;51.230;6.240;2023-04-08T01:32:42;10.00;99.90
27647;DHT22;42229;51.230;6.240;2023-04-08T01:35:10;10.10;99.90
27647;DHT22;42229;51.230;6.240;2023-04-08T01:37:36;10.00;99.90
27647;DHT22;42229;51.230;6.240;2023-04-08T01:40:04;10.10;99.90
27647;DHT22;42229;51.230;6.240;2023-04-08T01:42:32;10.00;99.90
27647;DHT22;42229;51.230;6.240;2023-04-08T01:44:58;10.00;99.90
27647;DHT22;42229;51.230;6.240;2023-04-08T01:47:26;10.00;99.90
27647;DHT22;42229;51.230;6.240;2023-04-08T01:49:53;10.00;99.90
27647;DHT22;42229;51.230;6.240;2023-04-08T01:52:20;10.00;99.90
27647;DHT22;42229;51.230;6.240;2023-04-08T01:54:47;10.00;99.90
27647;DHT22;42229;51.230;6.240;2023-04-08T01:57:16;10.00;99.90
27647;DHT22;42229;51.230;6.240;2023-04-08T01:59:45;10.00;99.90
27647;DHT22;42229;51.230;6.240;2023-04-08T02:02:13;10.00;99.90
27647;DHT22;42229;51.230;6.240;2023-04-08T02:04:40;10.00;99.90
27647;DHT22;42229;51.230;6.240;2023-04-08T02:07:06;10.00;99.90
27647;DHT22;42229;51.230;6.240;2023-04-08T02:09:33;10.00;99.90
27647;DHT22;42229;51.230;6.240;2023-04-08T02:11:59;10.00;99.90
27647;DHT22;42229;51.230;6.240;2023-04-08T02:14:26;10.00;99.90
27647;DHT22;42229;51.230;6.240;2023-04-08T02:16:57;10.00;99.90
27647;DHT22;42229;51.230;6.240;2023-04-08T02:19:51;10.00;99.90
27647;DHT22;42229;51.230;6.240;2023-04-08T02:22:24;10.10;99.90
27647;DHT22;42229;51.230;6.240;2023-04-08T02:24:56;10.00;99.90
27647;DHT22;42229;51.230;6.240;2023-04-08T02:27:24;10.00;99.90
27647;DHT22;42229;51.230;6.240;2023-04-08T02:29:50;10.10;99.90
27647;DHT22;42229;51.230;6.240;2023-04-08T02:32:20;10.00;99.90
27647;DHT22;42229;51.230;6.240;2023-04-08T02:34:47;10.10;99.90
27647;DHT22;42229;51.230;6.240;2023-04-08T02:37:14;10.00;99.90
27647;DHT22;42229;51.230;6.240;2023-04-08T02:39:40;10.10;99.90
27647;DHT22;42229;51.230;6.240;2023-04-08T02:42:06;10.10;99.90
27647;DHT22;42229;51.230;6.240;2023-04-08T02:44:32;10.10;99.90
27647;DHT22;42229;51.230;6.240;2023-04-08T02:47:02;10.10;99.90
27647;DHT22;42229;51.230;6.240;2023-04-08T02:49:28;10.10;99.90
27647;DHT22;42229;51.230;6.240;2023-04-08T02:51:54;10.10;99.90
27647;DHT22;42229;51.230;6.240;2023-04-08T02:54:20;10.10;99.90
27647;DHT22;42229;51.230;6.240;2023-04-08T02:56:47;10.10;99.90
27647;DHT22;42229;51.230;6.240;2023-04-08T02:59:13;10.10;99.90
27647;DHT22;42229;51.230;6.240;2023-04-08T03:01:39;10.10;99.90
27647;DHT22;42229;51.230;6.240;2023-04-08T03:04:06;10.10;99.90
27647;DHT22;42229;51.230;6.240;2023-04-08T03:06:32;10.10;99.90
27647;DHT22;42229;51.230;6.240;2023-04-08T03:08:58;10.10;99.90
27647;DHT22;42229;51.230;6.240;2023-04-08T03:11:24;10.10;99.90
27647;DHT22;42229;51.230;6.240;2023-04-08T03:13:51;10.20;99.90
27647;DHT22;42229;51.230;6.240;2023-04-08T03:16:17;10.10;99.90
27647;DHT22;42229;51.230;6.240;2023-04-08T03:18:43;10.20;99.90
27647;DHT22;42229;51.230;6.240;2023-04-08T03:21:09;10.10;99.90
27647;DHT22;42229;51.230;6.240;2023-04-08T03:23:36;10.20;99.90
27647;DHT22;42229;51.230;6.240;2023-04-08T03:26:02;10.20;99.90
27647;DHT22;42229;51.230;6.240;2023-04-08T03:28:28;10.20;99.90
27647;DHT22;42229;51.230;6.240;2023-04-08T03:30:55;10.20;99.90
27647;DHT22;42229;51.230;6.240;2023-04-08T03:33:21;10.20;99.90
27647;DHT22;42229;51.230;6.240;2023-04-08T03:35:47;10.20;99.90
27647;DHT22;42229;51.230;6.240;2023-04-08T03:38:13;10.20;99.90
27647;DHT22;42229;51.230;6.240;2023-04-08T03:40:40;10.20;99.90
27647;DHT22;42229;51.230;6.240;2023-04-08T03:43:06;10.20;99.90
27647;DHT22;42229;51.230;6.240;2023-04-08T03:45:33;10.20;99.90
27647;DHT22;42229;51.230;6.240;2023-04-08T03:47:59;10.10;99.90
27647;DHT22;42229;51.230;6.240;2023-04-08T03:50:26;10.20;99.90
27647;DHT22;42229;51.230;6.240;2023-04-08T03:52:52;10.20;99.90
27647;DHT22;42229;51.230;6.240;2023-04-08T03:55:18;10.20;99.90
27647;DHT22;42229;51.230;6.240;2023-04-08T03:57:44;10.10;99.90
27647;DHT22;42229;51.230;6.240;2023-04-08T04:00:11;10.10;99.90
27647;DHT22;42229;51.230;6.240;2023-04-08T04:02:40;10.10;99.90
27647;DHT22;42229;51.230;6.240;2023-04-08T04:05:06;10.10;99.90
27647;DHT22;42229;51.230;6.240;2023-04-08T04:07:33;10.20;99.90
27647;DHT22;42229;51.230;6.240;2023-04-08T04:09:59;10.10;99.90
27647;DHT22;42229;51.230;6.240;2023-04-08T04:12:25;10.20;99.90
27647;DHT22;42229;51.230;6.240;2023-04-08T04:14:51;10.10;99.90
27647;DHT22;42229;51.230;6.240;2023-04-08T04:17:17;10.10;99.90
27647;DHT22;42229;51.230;6.240;2023-04-08T04:19:44;10.20;99.90
27647;DHT22;42229;51.230;6.240;2023-04-08T04:22:10;10.20;99.90
27647;DHT22;42229;51.230;6.240;2023-04-08T04:24:36;10.20;99.90
27647;DHT22;42229;51.230;6.240;2023-04-08T04:27:02;10.10;99.90
27647;DHT22;42229;51.230;6.240;2023-04-08T04:29:30;10.10;99.90
27647;DHT22;42229;51.230;6.240;2023-04-08T04:31:56;10.10;99.90
27647;DHT22;42229;51.230;6.240;2023-04-08T04:34:22;10.10;99.90
27647;DHT22;42229;51.230;6.240;2023-04-08T04:36:49;10.10;99.90
27647;DHT22;42229;51.230;6.240;2023-04-08T04:39:15;10.20;99.90
27647;DHT22;42229;51.230;6.240;2023-04-08T04:41:41;10.20;99.90
27647;DHT22;42229;51.230;6.240;2023-04-08T04:44:09;10.10;99.90
27647;DHT22;42229;51.230;6.240;2023-04-08T04:46:35;10.20;99.90
27647;DHT22;42229;51.230;6.240;2023-04-08T04:49:01;10.10;99.90
27647;DHT22;42229;51.230;6.240;2023-04-08T04:51:29;10.10;99.90
27647;DHT22;42229;51.230;6.240;2023-04-08T04:53:56;10.20;99.90
27647;DHT22;42229;51.230;6.240;2023-04-08T04:56:22;10.20;99.90
27647;DHT22;42229;51.230;6.240;2023-04-08T04:58:48;10.10;99.90
27647;DHT22;42229;51.230;6.240;2023-04-08T05:01:15;10.10;99.90
27647;DHT22;42229;51.230;6.240;2023-04-08T05:03:41;10.10;99.90
27647;DHT22;42229;51.230;6.240;2023-04-08T05:06:07;10.10;99.90
27647;DHT22;42229;51.230;6.240;2023-04-08T05:08:33;10.10;99.90
27647;DHT22;42229;51.230;6.240;2023-04-08T05:11:00;10.20;99.90
27647;DHT22;42229;51.230;6.240;2023-04-08T05:13:27;10.20;99.90
27647;DHT22;42229;51.230;6.240;2023-04-08T05:15:54;10.20;99.90
27647;DHT22;42229;51.230;6.240;2023-04-08T05:18:20;10.20;99.90
27647;DHT22;42229;51.230;6.240;2023-04-08T05:20:46;10.20;99.90
27647;DHT22;42229;51.230;6.240;2023-04-08T05:23:12;10.20;99.90
27647;DHT22;42229;51.230;6.240;2023-04-08T05:25:38;10.20;99.90
27647;DHT22;42229;51.230;6.240;2023-04-08T05:28:05;10.20;99.90
27647;DHT22;42229;51.230;6.240;2023-04-08T05:30:31;10.20;99.90
27647;DHT22;42229;51.230;6.240;2023-04-08T05:32:58;10.20;99.90
27647;DHT22;42229;51.230;6.240;2023-04-08T05:35:24;10.30;99.90
27647;DHT22;42229;51.230;6.240;2023-04-08T05:37:50;10.30;99.90
27647;DHT22;42229;51.230;6.240;2023-04-08T05:40:16;10.30;99.90
27647;DHT22;42229;51.230;6.240;2023-04-08T05:42:43;10.30;99.90
27647;DHT22;42229;51.230;6.240;2023-04-08T05:45:09;10.30;99.90
27647;DHT22;42229;51.230;6.240;2023-04-08T05:47:35;10.30;99.90
27647;DHT22;42229;51.230;6.240;2023-04-08T05:50:02;10.30;99.90
27647;DHT22;42229;51.230;6.240;2023-04-08T05:52:28;10.30;99.90
27647;DHT22;42229;51.230;6.240;2023-04-08T05:54:54;10.40;99.90
27647;DHT22;42229;51.230;6.240;2023-04-08T05:57:20;10.40;99.90
27647;DHT22;42229;51.230;6.240;2023-04-08T05:59:47;10.40;99.90
27647;DHT22;42229;51.230;6.240;2023-04-08T06:02:13;10.40;99.90
27647;DHT22;42229;51.230;6.240;2023-04-08T06:04:39;10.50;99.90
27647;DHT22;42229;51.230;6.240;2023-04-08T06:07:05;10.50;99.90
27647;DHT22;42229;51.230;6.240;2023-04-08T06:09:36;10.50;99.90
27647;DHT22;42229;51.230;6.240;2023-04-08T06:12:02;10.50;99.90
27647;DHT22;42229;51.230;6.240;2023-04-08T06:14:29;10.50;99.90
27647;DHT22;42229;51.230;6.240;2023-04-08T06:16:55;10.50;99.90
27647;DHT22;42229;51.230;6.240;2023-04-08T06:19:21;10.50;99.90
27647;DHT22;42229;51.230;6.240;2023-04-08T06:21:48;10.50;99.90
27647;DHT22;42229;51.230;6.240;2023-04-08T06:24:16;10.60;99.90
27647;DHT22;42229;51.230;6.240;2023-04-08T06:26:42;10.50;99.90
27647;DHT22;42229;51.230;6.240;2023-04-08T06:29:08;10.60;99.90
27647;DHT22;42229;51.230;6.240;2023-04-08T06:31:35;10.60;99.90
27647;DHT22;42229;51.230;6.240;2023-04-08T06:34:01;10.70;99.90
27647;DHT22;42229;51.230;6.240;2023-04-08T06:36:27;10.70;99.90
27647;DHT22;42229;51.230;6.240;2023-04-08T06:38:54;10.70;99.90
27647;DHT22;42229;51.230;6.240;2023-04-08T06:41:20;10.70;99.90
27647;DHT22;42229;51.230;6.240;2023-04-08T06:43:48;10.80;99.90
27647;DHT22;42229;51.230;6.240;2023-04-08T06:46:14;10.80;99.90
27647;DHT22;42229;51.230;6.240;2023-04-08T06:48:40;10.80;99.90
27647;DHT22;42229;51.230;6.240;2023-04-08T06:51:06;10.80;99.90
27647;DHT22;42229;51.230;6.240;2023-04-08T06:53:33;10.90;99.90
27647;DHT22;42229;51.230;6.240;2023-04-08T06:55:59;10.90;99.90
27647;DHT22;42229;51.230;6.240;2023-04-08T06:58:25;10.90;99.90
27647;DHT22;42229;51.230;6.240;2023-04-08T07:00:54;10.90;99.90
27647;DHT22;42229;51.230;6.240;2023-04-08T07:03:21;11.00;99.90
27647;DHT22;42229;51.230;6.240;2023-04-08T07:05:48;11.00;99.90
27647;DHT22;42229;51.230;6.240;2023-04-08T07:08:14;11.10;99.90
27647;DHT22;42229;51.230;6.240;2023-04-08T07:10:40;11.10;99.90
27647;DHT22;42229;51.230;6.240;2023-04-08T07:13:07;11.20;99.90
27647;DHT22;42229;51.230;6.240;2023-04-08T07:15:33;11.20;99.90
27647;DHT22;42229;51.230;6.240;2023-04-08T07:17:59;11.20;99.90
27647;DHT22;42229;51.230;6.240;2023-04-08T07:20:25;11.40;99.90
27647;DHT22;42229;51.230;6.240;2023-04-08T07:22:51;11.40;99.90
27647;DHT22;42229;51.230;6.240;2023-04-08T07:25:18;11.40;99.90
27647;DHT22;42229;51.230;6.240;2023-04-08T07:27:44;11.40;99.90
27647;DHT22;42229;51.230;6.240;2023-04-08T07:30:10;11.50;99.90
27647;DHT22;42229;51.230;6.240;2023-04-08T07:32:37;11.50;99.90
27647;DHT22;42229;51.230;6.240;2023-04-08T07:35:03;11.50;99.90
27647;DHT22;42229;51.230;6.240;2023-04-08T07:37:30;11.60;99.90
27647;DHT22;42229;51.230;6.240;2023-04-08T07:39:56;11.70;99.90
27647;DHT22;42229;51.230;6.240;2023-04-08T07:42:22;11.70;99.90
27647;DHT22;42229;51.230;6.240;2023-04-08T07:44:49;11.70;99.90
27647;DHT22;42229;51.230;6.240;2023-04-08T07:47:15;11.70;99.90
27647;DHT22;42229;51.230;6.240;2023-04-08T07:49:41;11.80;99.90
27647;DHT22;42229;51.230;6.240;2023-04-08T07:52:07;11.70;99.90
27647;DHT22;42229;51.230;6.240;2023-04-08T07:54:34;11.80;99.90
27647;DHT22;42229;51.230;6.240;2023-04-08T07:57:00;11.80;99.90
27647;DHT22;42229;51.230;6.240;2023-04-08T07:59:27;11.80;99.90
27647;DHT22;42229;51.230;6.240;2023-04-08T08:01:54;11.90;99.90
27647;DHT22;42229;51.230;6.240;2023-04-08T08:04:20;11.90;99.90
27647;DHT22;42229;51.230;6.240;2023-04-08T08:06:46;12.00;99.90
27647;DHT22;42229;51.230;6.240;2023-04-08T08:09:12;12.00;99.90
27647;DHT22;42229;51.230;6.240;2023-04-08T08:11:39;12.10;99.90
27647;DHT22;42229;51.230;6.240;2023-04-08T08:14:05;12.10;99.90
27647;DHT22;42229;51.230;6.240;2023-04-08T08:16:32;12.20;99.90
27647;DHT22;42229;51.230;6.240;2023-04-08T08:18:59;12.20;99.90
27647;DHT22;42229;51.230;6.240;2023-04-08T08:21:25;12.20;99.90
27647;DHT22;42229;51.230;6.240;2023-04-08T08:23:52;12.30;99.90
27647;DHT22;42229;51.230;6.240;2023-04-08T08:26:19;12.30;99.90
27647;DHT22;42229;51.230;6.240;2023-04-08T08:28:47;12.40;99.90
27647;DHT22;42229;51.230;6.240;2023-04-08T08:31:14;12.40;99.90
27647;DHT22;42229;51.230;6.240;2023-04-08T08:33:40;12.40;99.90
27647;DHT22;42229;51.230;6.240;2023-04-08T08:36:06;12.40;99.90
27647;DHT22;42229;51.230;6.240;2023-04-08T08:38:32;12.40;99.90
27647;DHT22;42229;51.230;6.240;2023-04-08T08:40:59;12.40;99.90
27647;DHT22;42229;51.230;6.240;2023-04-08T08:43:26;12.40;99.90
27647;DHT22;42229;51.230;6.240;2023-04-08T08:45:52;12.40;99.90
27647;DHT22;42229;51.230;6.240;2023-04-08T08:48:19;12.40;99.90
27647;DHT22;42229;51.230;6.240;2023-04-08T08:50:45;12.40;99.90
27647;DHT22;42229;51.230;6.240;2023-04-08T08:53:12;12.40;99.90
27647;DHT22;42229;51.230;6.240;2023-04-08T08:55:38;12.50;99.90
27647;DHT22;42229;51.230;6.240;2023-04-08T08:58:04;12.50;99.90
27647;DHT22;42229;51.230;6.240;2023-04-08T09:03:15;12.60;99.90
27647;DHT22;42229;51.230;6.240;2023-04-08T09:10:56;12.80;99.90
27647;DHT22;42229;51.230;6.240;2023-04-08T09:13:37;12.80;99.90
27647;DHT22;42229;51.230;6.240;2023-04-08T09:16:04;12.90;99.90
27647;DHT22;42229;51.230;6.240;2023-04-08T09:18:32;12.90;99.90
27647;DHT22;42229;51.230;6.240;2023-04-08T09:20:59;12.90;99.90
27647;DHT22;42229;51.230;6.240;2023-04-08T09:26:16;13.10;99.90
27647;DHT22;42229;51.230;6.240;2023-04-08T09:28:56;13.20;99.90
27647;DHT22;42229;51.230;6.240;2023-04-08T09:31:27;13.30;99.90
27647;DHT22;42229;51.230;6.240;2023-04-08T09:33:56;13.40;99.90
27647;DHT22;42229;51.230;6.240;2023-04-08T09:36:23;13.40;99.90
27647;DHT22;42229;51.230;6.240;2023-04-08T09:38:53;13.50;99.90
27647;DHT22;42229;51.230;6.240;2023-04-08T09:41:21;13.50;99.90
27647;DHT22;42229;51.230;6.240;2023-04-08T09:43:51;13.50;99.90
27647;DHT22;42229;51.230;6.240;2023-04-08T09:49:00;13.50;99.90
27647;DHT22;42229;51.230;6.240;2023-04-08T09:52:07;13.60;99.90
27647;DHT22;42229;51.230;6.240;2023-04-08T09:54:46;13.60;99.90
27647;DHT22;42229;51.230;6.240;2023-04-08T09:57:21;13.70;99.90
27647;DHT22;42229;51.230;6.240;2023-04-08T10:00:03;13.70;99.90
27647;DHT22;42229;51.230;6.240;2023-04-08T10:05:24;13.90;99.90
27647;DHT22;42229;51.230;6.240;2023-04-08T10:07:50;14.00;99.90
27647;DHT22;42229;51.230;6.240;2023-04-08T10:10:17;14.10;99.90
27647;DHT22;42229;51.230;6.240;2023-04-08T10:12:44;14.10;99.90
27647;DHT22;42229;51.230;6.240;2023-04-08T10:15:32;14.10;99.90
27647;DHT22;42229;51.230;6.240;2023-04-08T10:22:59;14.20;99.90
27647;DHT22;42229;51.230;6.240;2023-04-08T10:25:36;14.20;99.90
27647;DHT22;42229;51.230;6.240;2023-04-08T10:30:39;14.20;99.90
27647;DHT22;42229;51.230;6.240;2023-04-08T10:35:39;14.30;99.90
27647;DHT22;42229;51.230;6.240;2023-04-08T10:38:07;14.30;99.90
27647;DHT22;42229;51.230;6.240;2023-04-08T10:40:34;14.30;99.90
27647;DHT22;42229;51.230;6.240;2023-04-08T10:43:04;14.40;99.90
27647;DHT22;42229;51.230;6.240;2023-04-08T10:45:30;14.50;99.90
27647;DHT22;42229;51.230;6.240;2023-04-08T10:48:03;14.50;99.90
27647;DHT22;42229;51.230;6.240;2023-04-08T10:50:36;14.60;99.90
27647;DHT22;42229;51.230;6.240;2023-04-08T10:53:03;14.70;99.90
27647;DHT22;42229;51.230;6.240;2023-04-08T10:55:29;14.90;99.90
27647;DHT22;42229;51.230;6.240;2023-04-08T10:58:06;15.00;99.90
27647;DHT22;42229;51.230;6.240;2023-04-08T11:00:36;15.20;99.90
27647;DHT22;42229;51.230;6.240;2023-04-08T11:03:09;15.40;99.90
27647;DHT22;42229;51.230;6.240;2023-04-08T11:05:36;15.40;99.90
27647;DHT22;42229;51.230;6.240;2023-04-08T11:08:04;15.50;99.90
27647;DHT22;42229;51.230;6.240;2023-04-08T11:10:33;15.40;99.90
27647;DHT22;42229;51.230;6.240;2023-04-08T11:13:02;15.40;99.90
27647;DHT22;42229;51.230;6.240;2023-04-08T11:15:29;15.40;99.90
27647;DHT22;42229;51.230;6.240;2023-04-08T11:17:55;15.30;99.90
27647;DHT22;42229;51.230;6.240;2023-04-08T11:20:22;15.30;99.90
27647;DHT22;42229;51.230;6.240;2023-04-08T11:22:48;15.30;99.90
27647;DHT22;42229;51.230;6.240;2023-04-08T11:25:15;15.30;99.90
27647;DHT22;42229;51.230;6.240;2023-04-08T11:27:41;15.40;99.90
27647;DHT22;42229;51.230;6.240;2023-04-08T11:30:08;15.40;99.90
27647;DHT22;42229;51.230;6.240;2023-04-08T11:32:35;15.50;99.90
27647;DHT22;42229;51.230;6.240;2023-04-08T11:35:05;15.50;99.90
27647;DHT22;42229;51.230;6.240;2023-04-08T11:37:36;15.60;99.90
27647;DHT22;42229;51.230;6.240;2023-04-08T11:40:05;15.60;99.90
27647;DHT22;42229;51.230;6.240;2023-04-08T11:42:35;15.60;99.90
27647;DHT22;42229;51.230;6.240;2023-04-08T11:45:08;15.70;99.90
27647;DHT22;42229;51.230;6.240;2023-04-08T11:47:35;15.80;99.90
27647;DHT22;42229;51.230;6.240;2023-04-08T11:50:02;16.10;99.90
27647;DHT22;42229;51.230;6.240;2023-04-08T11:55:08;16.70;99.90
27647;DHT22;42229;51.230;6.240;2023-04-08T11:57:36;17.10;99.90
27647;DHT22;42229;51.230;6.240;2023-04-08T12:00:03;17.50;99.90
27647;DHT22;42229;51.230;6.240;2023-04-08T12:02:36;17.90;99.90
27647;DHT22;42229;51.230;6.240;2023-04-08T12:05:03;18.20;99.90
27647;DHT22;42229;51.230;6.240;2023-04-08T12:07:29;18.40;99.90
27647;DHT22;42229;51.230;6.240;2023-04-08T12:09:55;18.70;99.90
27647;DHT22;42229;51.230;6.240;2023-04-08T12:12:21;18.90;99.90
27647;DHT22;42229;51.230;6.240;2023-04-08T12:14:48;19.10;99.90
27647;DHT22;42229;51.230;6.240;2023-04-08T12:17:14;19.20;99.90
27647;DHT22;42229;51.230;6.240;2023-04-08T12:19:40;19.30;94.20
27647;DHT22;42229;51.230;6.240;2023-04-08T12:22:07;19.40;99.90
27647;DHT22;42229;51.230;6.240;2023-04-08T12:24:33;19.40;99.70
27647;DHT22;42229;51.230;6.240;2023-04-08T12:26:59;19.40;98.10
27647;DHT22;42229;51.230;6.240;2023-04-08T12:29:27;19.30;99.10
27647;DHT22;42229;51.230;6.240;2023-04-08T12:31:54;19.30;95.50
27647;DHT22;42229;51.230;6.240;2023-04-08T12:34:20;19.30;99.90
27647;DHT22;42229;51.230;6.240;2023-04-08T12:36:47;19.20;95.70
27647;DHT22;42229;51.230;6.240;2023-04-08T12:39:14;19.20;98.20
27647;DHT22;42229;51.230;6.240;2023-04-08T12:41:41;19.10;99.80
27647;DHT22;42229;51.230;6.240;2023-04-08T12:44:07;19.10;98.00
27647;DHT22;42229;51.230;6.240;2023-04-08T12:46:33;19.10;96.30
27647;DHT22;42229;51.230;6.240;2023-04-08T12:48:59;18.90;96.20
27647;DHT22;42229;51.230;6.240;2023-04-08T12:51:26;18.80;99.50
27647;DHT22;42229;51.230;6.240;2023-04-08T12:53:52;18.70;96.30
27647;DHT22;42229;51.230;6.240;2023-04-08T12:56:18;18.60;96.80
27647;DHT22;42229;51.230;6.240;2023-04-08T12:58:44;18.50;98.90
27647;DHT22;42229;51.230;6.240;2023-04-08T13:01:11;18.40;98.70
27647;DHT22;42229;51.230;6.240;2023-04-08T13:03:37;18.30;99.30
27647;DHT22;42229;51.230;6.240;2023-04-08T13:06:03;18.10;98.40
27647;DHT22;42229;51.230;6.240;2023-04-08T13:08:29;18.00;99.90
27647;DHT22;42229;51.230;6.240;2023-04-08T13:10:56;17.90;97.00
27647;DHT22;42229;51.230;6.240;2023-04-08T13:13:22;17.80;98.50
27647;DHT22;42229;51.230;6.240;2023-04-08T13:15:48;17.60;99.90
27647;DHT22;42229;51.230;6.240;2023-04-08T13:18:15;17.60;99.90
27647;DHT22;42229;51.230;6.240;2023-04-08T13:20:41;17.50;99.90
27647;DHT22;42229;51.230;6.240;2023-04-08T13:23:08;17.40;99.60
27647;DHT22;42229;51.230;6.240;2023-04-08T13:25:34;17.30;99.90
27647;DHT22;42229;51.230;6.240;2023-04-08T13:28:00;17.20;99.90
27647;DHT22;42229;51.230;6.240;2023-04-08T13:30:26;17.10;99.90
27647;DHT22;42229;51.230;6.240;2023-04-08T13:32:54;17.00;96.80
27647;DHT22;42229;51.230;6.240;2023-04-08T13:35:20;16.90;98.60
27647;DHT22;42229;51.230;6.240;2023-04-08T13:37:46;16.90;99.90
27647;DHT22;42229;51.230;6.240;2023-04-08T13:40:13;16.90;98.70
27647;DHT22;42229;51.230;6.240;2023-04-08T13:42:39;17.00;99.90
27647;DHT22;42229;51.230;6.240;2023-04-08T13:45:06;17.00;99.90
27647;DHT22;42229;51.230;6.240;2023-04-08T13:47:33;17.00;99.90
27647;DHT22;42229;51.230;6.240;2023-04-08T13:49:59;17.10;99.90
27647;DHT22;42229;51.230;6.240;2023-04-08T13:52:25;17.20;99.90
27647;DHT22;42229;51.230;6.240;2023-04-08T13:54:52;17.30;99.10
27647;DHT22;42229;51.230;6.240;2023-04-08T13:57:18;17.30;97.10
27647;DHT22;42229;51.230;6.240;2023-04-08T13:59:44;17.40;99.90
27647;DHT22;42229;51.230;6.240;2023-04-08T14:02:10;17.30;96.80
27647;DHT22;42229;51.230;6.240;2023-04-08T14:04:37;17.30;96.70
27647;DHT22;42229;51.230;6.240;2023-04-08T14:07:04;17.20;99.00
27647;DHT22;42229;51.230;6.240;2023-04-08T14:09:30;17.10;99.90
27647;DHT22;42229;51.230;6.240;2023-04-08T14:11:57;17.10;99.90
27647;DHT22;42229;51.230;6.240;2023-04-08T14:14:23;17.00;99.90
27647;DHT22;42229;51.230;6.240;2023-04-08T14:16:50;17.00;97.10
27647;DHT22;42229;51.230;6.240;2023-04-08T14:19:16;16.90;99.70
27647;DHT22;42229;51.230;6.240;2023-04-08T14:21:42;16.90;94.80
27647;DHT22;42229;51.230;6.240;2023-04-08T14:24:08;16.80;97.50
27647;DHT22;42229;51.230;6.240;2023-04-08T14:26:35;16.70;99.90
27647;DHT22;42229;51.230;6.240;2023-04-08T14:29:02;16.70;99.90
27647;DHT22;42229;51.230;6.240;2023-04-08T14:31:29;16.60;99.70
27647;DHT22;42229;51.230;6.240;2023-04-08T14:33:57;16.50;98.20
27647;DHT22;42229;51.230;6.240;2023-04-08T14:36:24;16.40;99.90
27647;DHT22;42229;51.230;6.240;2023-04-08T14:38:51;16.30;99.70
27647;DHT22;42229;51.230;6.240;2023-04-08T14:41:17;16.30;99.70
27647;DHT22;42229;51.230;6.240;2023-04-08T14:43:43;16.20;99.90
27647;DHT22;42229;51.230;6.240;2023-04-08T14:46:10;16.20;99.90
27647;DHT22;42229;51.230;6.240;2023-04-08T14:48:36;16.20;99.90
27647;DHT22;42229;51.230;6.240;2023-04-08T14:51:02;16.30;99.90
27647;DHT22;42229;51.230;6.240;2023-04-08T14:53:29;16.30;99.40
27647;DHT22;42229;51.230;6.240;2023-04-08T14:55:55;16.40;99.90
27647;DHT22;42229;51.230;6.240;2023-04-08T14:58:22;16.50;99.90
27647;DHT22;42229;51.230;6.240;2023-04-08T15:00:48;16.70;99.90
27647;DHT22;42229;51.230;6.240;2023-04-08T15:03:15;16.90;99.90
27647;DHT22;42229;51.230;6.240;2023-04-08T15:05:54;17.20;99.30
27647;DHT22;42229;51.230;6.240;2023-04-08T15:08:21;17.50;99.50
27647;DHT22;42229;51.230;6.240;2023-04-08T15:10:47;17.80;99.80
27647;DHT22;42229;51.230;6.240;2023-04-08T15:13:13;18.10;96.00
27647;DHT22;42229;51.230;6.240;2023-04-08T15:15:39;18.30;95.60
27647;DHT22;42229;51.230;6.240;2023-04-08T15:18:07;18.60;98.40
27647;DHT22;42229;51.230;6.240;2023-04-08T15:20:40;18.80;99.30
27647;DHT22;42229;51.230;6.240;2023-04-08T15:23:07;18.90;99.00
27647;DHT22;42229;51.230;6.240;2023-04-08T15:25:33;19.00;99.90
27647;DHT22;42229;51.230;6.240;2023-04-08T15:27:59;19.00;99.20
27647;DHT22;42229;51.230;6.240;2023-04-08T15:30:27;18.90;99.90
27647;DHT22;42229;51.230;6.240;2023-04-08T15:32:53;18.90;96.10
27647;DHT22;42229;51.230;6.240;2023-04-08T15:35:19;19.00;99.90
27647;DHT22;42229;51.230;6.240;2023-04-08T15:37:46;19.10;96.70
27647;DHT22;42229;51.230;6.240;2023-04-08T15:40:12;19.30;98.10
27647;DHT22;42229;51.230;6.240;2023-04-08T15:42:38;19.50;96.90
27647;DHT22;42229;51.230;6.240;2023-04-08T15:45:04;19.70;97.20
27647;DHT22;42229;51.230;6.240;2023-04-08T15:47:31;19.90;97.50
27647;DHT22;42229;51.230;6.240;2023-04-08T15:49:59;20.20;99.50
27647;DHT22;42229;51.230;6.240;2023-04-08T15:52:25;20.30;92.40
27647;DHT22;42229;51.230;6.240;2023-04-08T15:54:52;20.50;96.90
27647;DHT22;42229;51.230;6.240;2023-04-08T15:57:18;20.60;98.00
27647;DHT22;42229;51.230;6.240;2023-04-08T15:59:51;20.70;94.40
27647;DHT22;42229;51.230;6.240;2023-04-08T16:02:18;20.80;96.00
27647;DHT22;42229;51.230;6.240;2023-04-08T16:04:44;20.90;94.60
27647;DHT22;42229;51.230;6.240;2023-04-08T16:07:11;21.00;97.80